Harbor Emperor — WCY6430 — position and weather

sailwx.info

Track history (hours):
 
Tides and Currents Weather Stations Pressure Air Temp Water Temp Dewpoint Dewpoint Depression Visibility Wind Speed Wind Dir Waves Ship Positions

Harbor Emperor

Owner: BLUE & GOLD FLEET, SAN FRANCISCO, CA. More information available from US FCC via Universal Licensing System and Coast Guard Vessel Documentation Center.

Last reported at 2015-Jul-29 19:34 UTC. Time now 2015-Jul-29 19:59 UTC.
Position N 37°49' W 122°24'.

Length 31 m.

Type: Passenger vessel. MMSI: 366985270.

Date/timePositionNaut miles runAvg speedWind from/ knotsBaromVisibWave heightAir tempDewpointWater temp
2015-Jul-29 19:34N 37°49' W 122°24'1 0.9
2015-Jul-29 18:34N 37°49' W 122°25'0 0.0
2015-Jul-29 02:15N 37°49' W 122°25'2 3.0
2015-Jul-29 01:33N 37°49' W 122°27'2 2.1
2015-Jul-29 00:33N 37°49' W 122°25'0 0.1
2015-Jul-28 23:33N 37°49' W 122°25'2 2.2
2015-Jul-28 22:33N 37°49' W 122°27'2 2.2
2015-Jul-28 21:33N 37°49' W 122°25'2 2.0
2015-Jul-28 20:33N 37°49' W 122°27'2 1.7
2015-Jul-28 19:33N 37°50' W 122°25'1 1.3
2015-Jul-28 18:33N 37°49' W 122°25'0 0.0
2015-Jul-28 17:30N 37°49' W 122°25'0 0.0
2015-Jul-28 16:33N 37°49' W 122°25'0 0.0
2015-Jul-28 15:33N 37°49' W 122°25'0 0.0
2015-Jul-28 14:33N 37°49' W 122°25'0 0.0
2015-Jul-28 13:33N 37°49' W 122°25'0 0.0
2015-Jul-28 12:33N 37°49' W 122°25'0 0.0
2015-Jul-28 11:33N 37°49' W 122°25'0 0.0
2015-Jul-28 10:33N 37°49' W 122°25'0 0.0
2015-Jul-28 09:33N 37°49' W 122°25'0 0.0
2015-Jul-28 08:33N 37°49' W 122°25'0 0.0
2015-Jul-28 07:30N 37°49' W 122°25'0 0.0
2015-Jul-28 06:33N 37°49' W 122°25'0 0.0
2015-Jul-28 05:33N 37°49' W 122°25'0 0.0
2015-Jul-28 04:33N 37°49' W 122°25'0 0.0
2015-Jul-28 03:33N 37°49' W 122°25'0 0.0
2015-Jul-28 02:27N 37°49' W 122°25'2 1.8
2015-Jul-28 01:33N 37°49' W 122°27'2 1.6
2015-Jul-28 00:33N 37°49' W 122°25'0 0.0
2015-Jul-27 23:33N 37°49' W 122°25'2 2.2
2015-Jul-27 22:33N 37°49' W 122°27'2 2.2
2015-Jul-27 21:33N 37°49' W 122°25'2 2.1
2015-Jul-27 20:33N 37°49' W 122°27'1 1.4
2015-Jul-27 19:33N 37°50' W 122°26'1 1.4
2015-Jul-27 18:33N 37°49' W 122°25'0 0.0
2015-Jul-27 02:16N 37°49' W 122°25'2 2.7
2015-Jul-27 01:33N 37°49' W 122°27'2 1.9
2015-Jul-27 00:33N 37°49' W 122°25'0 0.0
2015-Jul-26 23:34N 37°49' W 122°25'2 1.6
2015-Jul-26 22:34N 37°49' W 122°27'2 1.6
2015-Jul-26 21:34N 37°49' W 122°25'2 2.0
2015-Jul-26 20:34N 37°49' W 122°27'2 1.9
2015-Jul-26 19:34N 37°50' W 122°25'1 1.0
2015-Jul-26 18:33N 37°49' W 122°25'0 0.1
2015-Jul-26 17:34N 37°49' W 122°25'2 0.1
2015-Jul-26 02:33N 37°49' W 122°27'2 1.6
2015-Jul-26 01:33N 37°50' W 122°25'1 1.1
2015-Jul-26 00:33N 37°49' W 122°25'1 1.3
2015-Jul-25 23:33N 37°50' W 122°25'1 1.3
2015-Jul-25 22:33N 37°49' W 122°25'0 0.1
2015-Jul-25 21:33N 37°49' W 122°25'0 0.1
2015-Jul-25 20:33N 37°49' W 122°25'3 2.5
2015-Jul-25 19:33N 37°49' W 122°28'3 0.2
2015-Jul-25 03:06N 37°49' W 122°25'2 4.5
2015-Jul-25 02:33N 37°49' W 122°28'2 2.2
2015-Jul-25 01:34N 37°49' W 122°25'1 0.8
2015-Jul-25 00:33N 37°49' W 122°25'1 1.0
2015-Jul-24 23:33N 37°50' W 122°25'1 1.0
2015-Jul-24 22:33N 37°49' W 122°25'0 0.1
2015-Jul-24 21:33N 37°49' W 122°25'0 0.1
2015-Jul-24 20:33N 37°49' W 122°25'1 1.2
2015-Jul-24 19:33N 37°49' W 122°26'1 1.3
2015-Jul-24 18:34N 37°50' W 122°25'1 1.1
2015-Jul-24 17:33N 37°49' W 122°25'0 0.0
2015-Jul-24 16:28N 37°49' W 122°25'0 0.0
2015-Jul-24 15:28N 37°49' W 122°25'0 0.0
2015-Jul-24 14:28N 37°49' W 122°25'0 0.0
2015-Jul-24 13:28N 37°49' W 122°25'0 0.0
2015-Jul-24 12:28N 37°49' W 122°25'0 0.0
2015-Jul-24 11:28N 37°49' W 122°25'0 0.0
2015-Jul-24 10:22N 37°49' W 122°25'0 0.0
2015-Jul-24 09:28N 37°49' W 122°25'0 0.0
2015-Jul-24 08:28N 37°49' W 122°25'0 0.0
2015-Jul-24 07:28N 37°49' W 122°25'0 0.0
2015-Jul-24 06:28N 37°49' W 122°25'0 0.0
2015-Jul-24 05:28N 37°49' W 122°25'0 0.0
2015-Jul-24 04:31N 37°49' W 122°25'0 0.0
2015-Jul-24 03:31N 37°49' W 122°25'2 1.7
2015-Jul-24 02:33N 37°50' W 122°26'1 1.4
2015-Jul-24 01:33N 37°49' W 122°25'1 0.5
2015-Jul-24 00:33N 37°49' W 122°25'1 1.4
2015-Jul-23 23:33N 37°50' W 122°26'1 1.4
2015-Jul-23 22:33N 37°49' W 122°25'0 0.1
2015-Jul-23 21:33N 37°49' W 122°25'0 0.1
2015-Jul-23 20:33N 37°49' W 122°25'2 2.2
2015-Jul-23 19:33N 37°49' W 122°27'2 2.0
2015-Jul-23 18:33N 37°49' W 122°25'1 0.7
2015-Jul-23 17:33N 37°49' W 122°25'0 0.0
2015-Jul-23 01:19N 37°49' W 122°25'2 2.7
2015-Jul-23 00:33N 37°49' W 122°27'2 2.0
2015-Jul-22 23:33N 37°49' W 122°25'0 0.0
2015-Jul-22 22:34N 37°49' W 122°25'1 0.3
2015-Jul-22 20:34N 37°49' W 122°24'1 0.6
2015-Jul-22 19:33N 37°49' W 122°25'4 3.9
2015-Jul-22 18:33N 37°52' W 122°27'4 3.8
2015-Jul-22 17:31N 37°49' W 122°25'0 0.0
2015-Jul-22 16:31N 37°49' W 122°25'0 0.0
2015-Jul-22 15:31N 37°49' W 122°25'0 0.0
2015-Jul-22 14:30N 37°49' W 122°25'0 0.0
2015-Jul-22 13:30N 37°49' W 122°25'0 0.0
2015-Jul-22 12:32N 37°49' W 122°25'0 0.0
2015-Jul-22 11:30N 37°49' W 122°25'0 0.0
2015-Jul-22 10:30N 37°49' W 122°25'0 0.0
2015-Jul-22 09:30N 37°49' W 122°25'0 0.0
2015-Jul-22 08:23N 37°49' W 122°25'0 0.0
2015-Jul-22 07:30N 37°49' W 122°25'0 0.0
2015-Jul-22 06:32N 37°49' W 122°25'0 0.0
2015-Jul-22 05:33N 37°49' W 122°25'0 0.0
2015-Jul-22 04:30N 37°49' W 122°25'0 0.0
2015-Jul-22 03:29N 37°49' W 122°25'2 1.7
2015-Jul-22 02:33N 37°50' W 122°26'1 1.3
2015-Jul-22 01:33N 37°49' W 122°25'0 0.5
2015-Jul-22 00:33N 37°49' W 122°25'1 1.4
2015-Jul-21 23:33N 37°50' W 122°26'1 1.4
2015-Jul-21 22:33N 37°49' W 122°25'0 0.1
2015-Jul-21 21:33N 37°49' W 122°25'0 0.1
2015-Jul-21 20:33N 37°49' W 122°25'2 1.8
2015-Jul-21 19:33N 37°49' W 122°27'2 1.9
2015-Jul-21 18:34N 37°49' W 122°25'1 0.6
2015-Jul-21 17:33N 37°49' W 122°25'0 0.0
2015-Jul-21 16:33N 37°49' W 122°25'0 0.0
2015-Jul-21 15:33N 37°49' W 122°25'0 0.0
2015-Jul-21 14:33N 37°49' W 122°25'0 0.0
2015-Jul-21 13:33N 37°49' W 122°25'0 0.0
2015-Jul-21 12:33N 37°49' W 122°25'0 0.0
2015-Jul-21 11:33N 37°49' W 122°25'0 0.0
2015-Jul-21 10:33N 37°49' W 122°25'0 0.0
2015-Jul-21 09:33N 37°49' W 122°25'0 0.0
2015-Jul-21 08:33N 37°49' W 122°25'0 0.0
2015-Jul-21 07:33N 37°49' W 122°25'0 0.0
2015-Jul-21 06:33N 37°49' W 122°25'0 0.0
2015-Jul-21 05:33N 37°49' W 122°25'0 0.0
2015-Jul-21 04:33N 37°49' W 122°25'0 0.0
2015-Jul-21 03:33N 37°49' W 122°25'0 0.0
2015-Jul-21 02:33N 37°49' W 122°25'0 0.0
2015-Jul-21 01:33N 37°49' W 122°25'0 0.0
2015-Jul-21 00:33N 37°49' W 122°25'0 0.0
2015-Jul-20 23:33N 37°49' W 122°25'0 0.0
2015-Jul-20 22:33N 37°49' W 122°25'4 3.7
2015-Jul-20 21:33N 37°52' W 122°26'3 3.5
2015-Jul-20 20:33N 37°49' W 122°25'0 0.3
2015-Jul-20 19:33N 37°49' W 122°25'4 4.3
2015-Jul-20 18:33N 37°52' W 122°27'3 0.2
2015-Jul-20 02:33N 37°50' W 122°27'2 2.3
2015-Jul-20 01:33N 37°49' W 122°24'0 0.3
2015-Jul-20 00:33N 37°49' W 122°25'1 1.1
2015-Jul-19 23:33N 37°49' W 122°25'1 1.1
2015-Jul-19 22:33N 37°49' W 122°25'0 0.1
2015-Jul-19 21:33N 37°49' W 122°25'0 0.1
2015-Jul-19 20:33N 37°49' W 122°25'  
Track history (hours):
 
Tides and Currents Weather Stations Pressure Air Temp Water Temp Dewpoint Dewpoint Depression Visibility Wind Speed Wind Dir Waves Ship Positions

Harbor Emperor

Owner: BLUE & GOLD FLEET, SAN FRANCISCO, CA. More information available from US FCC via Universal Licensing System and Coast Guard Vessel Documentation Center.

Last reported at 2015-Jul-29 19:34 UTC. Time now 2015-Jul-29 19:59 UTC.
Position N 37°49' W 122°24'.

Length 31 m.

Type: Passenger vessel. MMSI: 366985270.

Date/timePositionNaut miles runAvg speedWind from/ knotsBaromVisibWave heightAir tempDewpointWater temp
2015-Jul-29 19:34N 37°49' W 122°24'1 0.9
2015-Jul-29 18:34N 37°49' W 122°25'0 0.0
2015-Jul-29 02:15N 37°49' W 122°25'2 3.0
2015-Jul-29 01:33N 37°49' W 122°27'2 2.1
2015-Jul-29 00:33N 37°49' W 122°25'0 0.1
2015-Jul-28 23:33N 37°49' W 122°25'2 2.2
2015-Jul-28 22:33N 37°49' W 122°27'2 2.2
2015-Jul-28 21:33N 37°49' W 122°25'2 2.0
2015-Jul-28 20:33N 37°49' W 122°27'2 1.7
2015-Jul-28 19:33N 37°50' W 122°25'1 1.3
2015-Jul-28 18:33N 37°49' W 122°25'0 0.0
2015-Jul-28 17:30N 37°49' W 122°25'0 0.0
2015-Jul-28 16:33N 37°49' W 122°25'0 0.0
2015-Jul-28 15:33N 37°49' W 122°25'0 0.0
2015-Jul-28 14:33N 37°49' W 122°25'0 0.0
2015-Jul-28 13:33N 37°49' W 122°25'0 0.0
2015-Jul-28 12:33N 37°49' W 122°25'0 0.0
2015-Jul-28 11:33N 37°49' W 122°25'0 0.0
2015-Jul-28 10:33N 37°49' W 122°25'0 0.0
2015-Jul-28 09:33N 37°49' W 122°25'0 0.0
2015-Jul-28 08:33N 37°49' W 122°25'0 0.0
2015-Jul-28 07:30N 37°49' W 122°25'0 0.0
2015-Jul-28 06:33N 37°49' W 122°25'0 0.0
2015-Jul-28 05:33N 37°49' W 122°25'0 0.0
2015-Jul-28 04:33N 37°49' W 122°25'0 0.0
2015-Jul-28 03:33N 37°49' W 122°25'0 0.0
2015-Jul-28 02:27N 37°49' W 122°25'2 1.8
2015-Jul-28 01:33N 37°49' W 122°27'2 1.6
2015-Jul-28 00:33N 37°49' W 122°25'0 0.0
2015-Jul-27 23:33N 37°49' W 122°25'2 2.2
2015-Jul-27 22:33N 37°49' W 122°27'2 2.2
2015-Jul-27 21:33N 37°49' W 122°25'2 2.1
2015-Jul-27 20:33N 37°49' W 122°27'1 1.4
2015-Jul-27 19:33N 37°50' W 122°26'1 1.4
2015-Jul-27 18:33N 37°49' W 122°25'0 0.0
2015-Jul-27 02:16N 37°49' W 122°25'2 2.7
2015-Jul-27 01:33N 37°49' W 122°27'2 1.9
2015-Jul-27 00:33N 37°49' W 122°25'0 0.0
2015-Jul-26 23:34N 37°49' W 122°25'2 1.6
2015-Jul-26 22:34N 37°49' W 122°27'2 1.6
2015-Jul-26 21:34N 37°49' W 122°25'2 2.0
2015-Jul-26 20:34N 37°49' W 122°27'2 1.9
2015-Jul-26 19:34N 37°50' W 122°25'1 1.0
2015-Jul-26 18:33N 37°49' W 122°25'0 0.1
2015-Jul-26 17:34N 37°49' W 122°25'2 0.1
2015-Jul-26 02:33N 37°49' W 122°27'2 1.6
2015-Jul-26 01:33N 37°50' W 122°25'1 1.1
2015-Jul-26 00:33N 37°49' W 122°25'1 1.3
2015-Jul-25 23:33N 37°50' W 122°25'1 1.3
2015-Jul-25 22:33N 37°49' W 122°25'0 0.1
2015-Jul-25 21:33N 37°49' W 122°25'0 0.1
2015-Jul-25 20:33N 37°49' W 122°25'3 2.5
2015-Jul-25 19:33N 37°49' W 122°28'3 0.2
2015-Jul-25 03:06N 37°49' W 122°25'2 4.5
2015-Jul-25 02:33N 37°49' W 122°28'2 2.2
2015-Jul-25 01:34N 37°49' W 122°25'1 0.8
2015-Jul-25 00:33N 37°49' W 122°25'1 1.0
2015-Jul-24 23:33N 37°50' W 122°25'1 1.0
2015-Jul-24 22:33N 37°49' W 122°25'0 0.1
2015-Jul-24 21:33N 37°49' W 122°25'0 0.1
2015-Jul-24 20:33N 37°49' W 122°25'1 1.2
2015-Jul-24 19:33N 37°49' W 122°26'1 1.3
2015-Jul-24 18:34N 37°50' W 122°25'1 1.1
2015-Jul-24 17:33N 37°49' W 122°25'0 0.0
2015-Jul-24 16:28N 37°49' W 122°25'0 0.0
2015-Jul-24 15:28N 37°49' W 122°25'0 0.0
2015-Jul-24 14:28N 37°49' W 122°25'0 0.0
2015-Jul-24 13:28N 37°49' W 122°25'0 0.0
2015-Jul-24 12:28N 37°49' W 122°25'0 0.0
2015-Jul-24 11:28N 37°49' W 122°25'0 0.0
2015-Jul-24 10:22N 37°49' W 122°25'0 0.0
2015-Jul-24 09:28N 37°49' W 122°25'0 0.0
2015-Jul-24 08:28N 37°49' W 122°25'0 0.0
2015-Jul-24 07:28N 37°49' W 122°25'0 0.0
2015-Jul-24 06:28N 37°49' W 122°25'0 0.0
2015-Jul-24 05:28N 37°49' W 122°25'0 0.0
2015-Jul-24 04:31N 37°49' W 122°25'0 0.0
2015-Jul-24 03:31N 37°49' W 122°25'2 1.7
2015-Jul-24 02:33N 37°50' W 122°26'1 1.4
2015-Jul-24 01:33N 37°49' W 122°25'1 0.5
2015-Jul-24 00:33N 37°49' W 122°25'1 1.4
2015-Jul-23 23:33N 37°50' W 122°26'1 1.4
2015-Jul-23 22:33N 37°49' W 122°25'0 0.1
2015-Jul-23 21:33N 37°49' W 122°25'0 0.1
2015-Jul-23 20:33N 37°49' W 122°25'2 2.2
2015-Jul-23 19:33N 37°49' W 122°27'2 2.0
2015-Jul-23 18:33N 37°49' W 122°25'1 0.7
2015-Jul-23 17:33N 37°49' W 122°25'0 0.0
2015-Jul-23 01:19N 37°49' W 122°25'2 2.7
2015-Jul-23 00:33N 37°49' W 122°27'2 2.0
2015-Jul-22 23:33N 37°49' W 122°25'0 0.0
2015-Jul-22 22:34N 37°49' W 122°25'1 0.3
2015-Jul-22 20:34N 37°49' W 122°24'1 0.6
2015-Jul-22 19:33N 37°49' W 122°25'4 3.9
2015-Jul-22 18:33N 37°52' W 122°27'4 3.8
2015-Jul-22 17:31N 37°49' W 122°25'0 0.0
2015-Jul-22 16:31N 37°49' W 122°25'0 0.0
2015-Jul-22 15:31N 37°49' W 122°25'0 0.0
2015-Jul-22 14:30N 37°49' W 122°25'0 0.0
2015-Jul-22 13:30N 37°49' W 122°25'0 0.0
2015-Jul-22 12:32N 37°49' W 122°25'0 0.0
2015-Jul-22 11:30N 37°49' W 122°25'0 0.0
2015-Jul-22 10:30N 37°49' W 122°25'0 0.0
2015-Jul-22 09:30N 37°49' W 122°25'0 0.0
2015-Jul-22 08:23N 37°49' W 122°25'0 0.0
2015-Jul-22 07:30N 37°49' W 122°25'0 0.0
2015-Jul-22 06:32N 37°49' W 122°25'0 0.0
2015-Jul-22 05:33N 37°49' W 122°25'0 0.0
2015-Jul-22 04:30N 37°49' W 122°25'0 0.0
2015-Jul-22 03:29N 37°49' W 122°25'2 1.7
2015-Jul-22 02:33N 37°50' W 122°26'1 1.3
2015-Jul-22 01:33N 37°49' W 122°25'0 0.5
2015-Jul-22 00:33N 37°49' W 122°25'1 1.4
2015-Jul-21 23:33N 37°50' W 122°26'1 1.4
2015-Jul-21 22:33N 37°49' W 122°25'0 0.1
2015-Jul-21 21:33N 37°49' W 122°25'0 0.1
2015-Jul-21 20:33N 37°49' W 122°25'2 1.8
2015-Jul-21 19:33N 37°49' W 122°27'2 1.9
2015-Jul-21 18:34N 37°49' W 122°25'1 0.6
2015-Jul-21 17:33N 37°49' W 122°25'0 0.0
2015-Jul-21 16:33N 37°49' W 122°25'0 0.0
2015-Jul-21 15:33N 37°49' W 122°25'0 0.0
2015-Jul-21 14:33N 37°49' W 122°25'0 0.0
2015-Jul-21 13:33N 37°49' W 122°25'0 0.0
2015-Jul-21 12:33N 37°49' W 122°25'0 0.0
2015-Jul-21 11:33N 37°49' W 122°25'0 0.0
2015-Jul-21 10:33N 37°49' W 122°25'0 0.0
2015-Jul-21 09:33N 37°49' W 122°25'0 0.0
2015-Jul-21 08:33N 37°49' W 122°25'0 0.0
2015-Jul-21 07:33N 37°49' W 122°25'0 0.0
2015-Jul-21 06:33N 37°49' W 122°25'0 0.0
2015-Jul-21 05:33N 37°49' W 122°25'0 0.0
2015-Jul-21 04:33N 37°49' W 122°25'0 0.0
2015-Jul-21 03:33N 37°49' W 122°25'0 0.0
2015-Jul-21 02:33N 37°49' W 122°25'0 0.0
2015-Jul-21 01:33N 37°49' W 122°25'0 0.0
2015-Jul-21 00:33N 37°49' W 122°25'0 0.0
2015-Jul-20 23:33N 37°49' W 122°25'0 0.0
2015-Jul-20 22:33N 37°49' W 122°25'4 3.7
2015-Jul-20 21:33N 37°52' W 122°26'3 3.5
2015-Jul-20 20:33N 37°49' W 122°25'0 0.3
2015-Jul-20 19:33N 37°49' W 122°25'4 4.3
2015-Jul-20 18:33N 37°52' W 122°27'3 0.2
2015-Jul-20 02:33N 37°50' W 122°27'2 2.3
2015-Jul-20 01:33N 37°49' W 122°24'0 0.3
2015-Jul-20 00:33N 37°49' W 122°25'1 1.1
2015-Jul-19 23:33N 37°49' W 122°25'1 1.1
2015-Jul-19 22:33N 37°49' W 122°25'0 0.1
2015-Jul-19 21:33N 37°49' W 122°25'0 0.1
2015-Jul-19 20:33N 37°49' W 122°25'  

Dump ship's entire track history